Time;durP1;ratioP1;P1;durP2;ratioP2;P2;SDS_P1;SDS_P2;PMS_P1;PMS_P2;Temp;Humidity;BMP_temperature;BMP_pressure;BME280_temperature;BME280_humidity;BME280_pressure;Samples;Min_cycle;Max_cycle;Signal;HPM_P1;HPM_P2
2021/09/09 00:00:45;;;;;;;79.17;49.10;;;;;;;;;;5097270;28;20514;-50
2021/09/09 00:03:29;;;;;;;34.40;23.87;;;;;;;;;;5097785;28;20460;-46
2021/09/09 00:05:57;;;;;;;32.20;22.03;;;;;;;;;;5095740;28;20510;-54
2021/09/09 00:08:24;;;;;;;59.47;34.40;;;;;;;;;;5117592;28;20497;-50
2021/09/09 00:10:57;;;;;;;26.77;17.40;;;;;;;;;;5081917;28;20457;-54
2021/09/09 00:13:24;;;;;;;43.13;29.33;;;;;;;;;;5077728;28;20492;-49
2021/09/09 00:15:54;;;;;;;27.00;18.97;;;;;;;;;;5091242;28;20439;-49
2021/09/09 00:21:28;;;;;;;24.43;12.77;;;;;;;;;;5099876;28;20434;-52
2021/09/09 00:23:56;;;;;;;13.83;10.00;;;;;;;;;;5097487;28;20444;-54
2021/09/09 00:26:23;;;;;;;23.57;13.37;;;;;;;;;;5097728;28;20466;-49
2021/09/09 00:31:56;;;;;;;19.27;12.07;;;;;;;;;;5097804;28;20415;-53
2021/09/09 00:34:23;;;;;;;14.80;11.00;;;;;;;;;;5097942;28;20470;-54
2021/09/09 00:39:54;;;;;;;11.80;9.70;;;;;;;;;;5095252;28;20466;-52
2021/09/09 00:42:22;;;;;;;13.17;10.40;;;;;;;;;;5096872;28;20458;-54
2021/09/09 00:45:24;;;;;;;13.90;10.17;;;;;;;;;;5097810;28;20487;-51
2021/09/09 00:47:53;;;;;;;11.77;9.00;;;;;;;;;;5106436;28;20495;-54
2021/09/09 00:50:23;;;;;;;17.00;10.43;;;;;;;;;;5117405;28;20451;-61
2021/09/09 00:53:27;;;;;;;14.30;10.53;;;;;;;;;;5117679;28;20515;-47
2021/09/09 00:55:54;;;;;;;11.77;10.33;;;;;;;;;;5101874;28;20529;-51
2021/09/09 00:58:22;;;;;;;11.20;9.10;;;;;;;;;;5096785;28;20526;-47
2021/09/09 01:00:56;;;;;;;13.53;9.07;;;;;;;;;;5096459;28;20451;-53
2021/09/09 01:03:24;;;;;;;14.00;10.40;;;;;;;;;;5116312;28;20439;-51
2021/09/09 01:05:52;;;;;;;15.47;10.40;;;;;;;;;;5117055;28;20435;-56
2021/09/09 01:08:24;;;;;;;15.27;10.57;;;;;;;;;;5117029;28;20479;-50
2021/09/09 01:10:52;;;;;;;10.73;8.67;;;;;;;;;;5117162;28;20508;-46
2021/09/09 01:13:20;;;;;;;12.17;9.70;;;;;;;;;;5116792;28;20486;-54
2021/09/09 01:16:09;;;;;;;14.00;11.30;;;;;;;;;;5117307;28;20478;-55
2021/09/09 01:18:38;;;;;;;12.40;10.20;;;;;;;;;;5117265;28;20455;-55
2021/09/09 01:21:06;;;;;;;16.47;10.50;;;;;;;;;;5116717;28;20534;-54
2021/09/09 01:24:03;;;;;;;13.30;9.97;;;;;;;;;;5116917;28;20459;-53
2021/09/09 01:26:32;;;;;;;11.37;9.67;;;;;;;;;;5116898;28;20455;-50
2021/09/09 01:29:00;;;;;;;11.17;9.33;;;;;;;;;;5117197;28;20522;-50
2021/09/09 01:34:31;;;;;;;11.40;8.73;;;;;;;;;;5096526;28;20477;-50
2021/09/09 01:36:59;;;;;;;13.93;9.93;;;;;;;;;;5096646;28;20792;-53
2021/09/09 01:39:35;;;;;;;11.57;9.57;;;;;;;;;;5105925;28;20463;-50
2021/09/09 01:42:04;;;;;;;14.17;11.13;;;;;;;;;;5100183;28;20491;-52
2021/09/09 01:44:32;;;;;;;11.90;9.33;;;;;;;;;;5096397;28;20444;-52
2021/09/09 01:47:11;;;;;;;13.50;10.10;;;;;;;;;;5096186;28;20448;-52
2021/09/09 01:49:39;;;;;;;12.63;9.80;;;;;;;;;;5096239;28;20467;-55
2021/09/09 01:52:07;;;;;;;13.13;10.27;;;;;;;;;;5096425;28;20440;-55
2021/09/09 01:54:44;;;;;;;12.60;9.60;;;;;;;;;;5096422;28;20483;-55
2021/09/09 01:57:13;;;;;;;13.13;9.87;;;;;;;;;;5096924;28;20455;-53
2021/09/09 01:59:40;;;;;;;15.17;10.23;;;;;;;;;;5096681;28;20444;-54
2021/09/09 02:02:09;;;;;;;16.53;9.70;;;;;;;;;;5096944;28;20502;-61
2021/09/09 02:04:36;;;;;;;10.90;9.20;;;;;;;;;;5096783;28;20478;-53
2021/09/09 02:07:04;;;;;;;13.30;10.07;;;;;;;;;;5096448;28;20436;-53
2021/09/09 02:09:32;;;;;;;12.07;10.20;;;;;;;;;;5096690;28;20532;-54
2021/09/09 02:12:02;;;;;;;14.93;8.80;;;;;;;;;;5116326;28;20465;-55
2021/09/09 02:14:35;;;;;;;13.13;10.63;;;;;;;;;;5117353;28;20451;-55
2021/09/09 02:17:18;;;;;;;12.00;9.73;;;;;;;;;;5117102;28;20514;-50
2021/09/09 02:19:57;;;;;;;12.63;10.13;;;;;;;;;;5117495;28;20472;-54
2021/09/09 02:22:25;;;;;;;14.67;9.83;;;;;;;;;;5103969;28;20463;-52
2021/09/09 02:27:56;;;;;;;13.77;9.77;;;;;;;;;;5100136;28;20510;-55
2021/09/09 02:30:26;;;;;;;13.03;10.13;;;;;;;;;;5100141;28;20458;-51
2021/09/09 02:33:00;;;;;;;15.60;10.57;;;;;;;;;;5111676;28;20442;-57
2021/09/09 02:35:27;;;;;;;15.30;10.97;;;;;;;;;;5120738;28;20499;-49
2021/09/09 02:37:54;;;;;;;13.93;10.47;;;;;;;;;;5120385;28;20451;-56
2021/09/09 02:40:23;;;;;;;12.10;9.83;;;;;;;;;;5119762;28;20451;-53
2021/09/09 02:42:50;;;;;;;13.57;10.57;;;;;;;;;;5120077;28;20454;-48
2021/09/09 02:45:17;;;;;;;13.40;9.90;;;;;;;;;;5119422;28;20439;-49
2021/09/09 02:47:57;;;;;;;13.17;9.53;;;;;;;;;;5099548;28;20492;-56
2021/09/09 02:50:24;;;;;;;12.30;9.93;;;;;;;;;;5099341;28;20467;-56
2021/09/09 02:52:52;;;;;;;13.07;10.40;;;;;;;;;;5099536;28;20440;-50
2021/09/09 02:55:55;;;;;;;12.67;9.93;;;;;;;;;;5099208;28;20451;-55
2021/09/09 02:58:22;;;;;;;13.77;11.10;;;;;;;;;;5099185;28;20444;-55
2021/09/09 03:00:50;;;;;;;12.27;9.73;;;;;;;;;;5099500;28;20511;-50
2021/09/09 03:03:33;;;;;;;12.20;10.57;;;;;;;;;;5099627;28;20444;-53
2021/09/09 03:09:00;;;;;;;12.60;9.37;;;;;;;;;;5083514;28;20468;-58
2021/09/09 03:11:30;;;;;;;11.37;8.90;;;;;;;;;;5099964;28;20487;-55
2021/09/09 03:13:57;;;;;;;12.83;9.53;;;;;;;;;;5114179;28;20444;-57
2021/09/09 03:16:25;;;;;;;12.20;9.13;;;;;;;;;;5118885;28;20443;-52
2021/09/09 03:18:53;;;;;;;12.47;9.93;;;;;;;;;;5119629;28;20444;-54
2021/09/09 03:21:21;;;;;;;13.43;9.67;;;;;;;;;;5119620;28;20472;-51
2021/09/09 03:23:48;;;;;;;13.77;9.93;;;;;;;;;;5119366;28;20496;-52
2021/09/09 03:26:15;;;;;;;18.40;10.33;;;;;;;;;;5119911;28;20443;-54
2021/09/09 03:28:47;;;;;;;13.27;10.10;;;;;;;;;;5119571;28;20554;-50
2021/09/09 03:31:15;;;;;;;13.17;9.83;;;;;;;;;;5110345;28;20499;-55
2021/09/09 03:33:45;;;;;;;14.50;9.37;;;;;;;;;;5099630;28;20428;-56
2021/09/09 03:36:16;;;;;;;13.80;10.77;;;;;;;;;;5098907;28;20429;-57
2021/09/09 03:38:44;;;;;;;13.30;10.60;;;;;;;;;;5098617;28;20478;-50
2021/09/09 03:41:11;;;;;;;13.30;10.10;;;;;;;;;;5098844;28;20457;-57
2021/09/09 03:43:39;;;;;;;19.13;10.80;;;;;;;;;;5098585;28;20482;-51
2021/09/09 03:46:06;;;;;;;12.40;10.00;;;;;;;;;;5098568;28;20440;-58
2021/09/09 03:48:36;;;;;;;16.10;10.90;;;;;;;;;;5098628;28;20490;-56
2021/09/09 03:51:03;;;;;;;19.00;11.07;;;;;;;;;;5081505;28;20436;-57
2021/09/09 03:53:32;;;;;;;17.37;11.37;;;;;;;;;;5098561;28;20444;-54
2021/09/09 03:55:59;;;;;;;14.10;10.63;;;;;;;;;;5098518;28;20459;-57
2021/09/09 03:58:41;;;;;;;16.20;10.70;;;;;;;;;;5098769;28;20451;-48
2021/09/09 04:01:14;;;;;;;13.80;11.10;;;;;;;;;;5081510;28;20539;-53
2021/09/09 04:03:42;;;;;;;14.20;11.10;;;;;;;;;;5078917;28;20456;-51
2021/09/09 04:06:11;;;;;;;15.40;11.13;;;;;;;;;;5078990;28;20475;-58
2021/09/09 04:08:39;;;;;;;12.40;9.93;;;;;;;;;;5077501;28;20473;-54
2021/09/09 04:11:08;;;;;;;14.20;11.10;;;;;;;;;;5059677;28;20509;-50
2021/09/09 04:13:56;;;;;;;12.87;10.57;;;;;;;;;;5070591;28;20452;-54
2021/09/09 04:16:23;;;;;;;16.77;11.07;;;;;;;;;;5077644;28;20457;-57
2021/09/09 04:18:50;;;;;;;14.57;11.53;;;;;;;;;;5090296;28;20456;-56
2021/09/09 04:24:25;;;;;;;14.50;11.30;;;;;;;;;;5098177;28;20419;-56
2021/09/09 04:26:53;;;;;;;20.83;12.20;;;;;;;;;;5098604;28;20440;-57
2021/09/09 04:32:25;;;;;;;19.63;12.83;;;;;;;;;;5077911;28;20416;-50
2021/09/09 04:35:09;;;;;;;17.00;11.80;;;;;;;;;;5077716;28;20530;-49
2021/09/09 04:37:57;;;;;;;12.30;9.60;;;;;;;;;;5076694;28;20445;-54
2021/09/09 04:40:30;;;;;;;16.23;10.93;;;;;;;;;;5081240;28;20547;-54
2021/09/09 04:42:58;;;;;;;16.10;9.07;;;;;;;;;;5076459;28;20500;-48
2021/09/09 04:45:27;;;;;;;12.63;8.97;;;;;;;;;;5093251;28;20556;-54
2021/09/09 04:47:57;;;;;;;15.03;11.33;;;;;;;;;;5099840;28;20467;-51
2021/09/09 04:50:35;;;;;;;16.60;10.80;;;;;;;;;;5117403;28;20443;-55
2021/09/09 04:53:11;;;;;;;18.20;11.97;;;;;;;;;;5117199;28;20443;-55
2021/09/09 04:55:41;;;;;;;17.67;9.90;;;;;;;;;;5099184;28;20475;-52
2021/09/09 04:58:10;;;;;;;13.00;10.47;;;;;;;;;;5097327;28;20467;-56
2021/09/09 05:03:43;;;;;;;13.30;10.23;;;;;;;;;;5083105;28;20436;-50
2021/09/09 05:06:12;;;;;;;18.40;11.90;;;;;;;;;;5089647;28;20516;-58
2021/09/09 05:08:39;;;;;;;14.27;10.43;;;;;;;;;;5076858;28;20540;-50
2021/09/09 05:11:10;;;;;;;14.53;11.37;;;;;;;;;;5076203;28;20449;-58
2021/09/09 05:13:38;;;;;;;13.97;9.80;;;;;;;;;;5076500;28;20468;-56
2021/09/09 05:16:05;;;;;;;12.63;10.00;;;;;;;;;;5089714;28;20726;-52
2021/09/09 05:18:33;;;;;;;14.20;9.57;;;;;;;;;;5094850;28;20452;-52
2021/09/09 05:21:00;;;;;;;15.13;11.03;;;;;;;;;;5096039;28;20440;-55
2021/09/09 05:23:28;;;;;;;18.43;10.33;;;;;;;;;;5101543;28;20440;-59
2021/09/09 05:25:56;;;;;;;14.30;11.40;;;;;;;;;;5096031;28;20539;-55
2021/09/09 05:28:26;;;;;;;14.13;9.80;;;;;;;;;;5095638;28;20464;-59
2021/09/09 05:30:55;;;;;;;15.87;11.20;;;;;;;;;;5077763;28;20456;-56
2021/09/09 05:37:06;;;;;;;14.10;9.30;;;;;;;;;;5086073;28;20462;-57
2021/09/09 05:39:37;;;;;;;18.20;10.60;;;;;;;;;;5115510;28;20463;-57
2021/09/09 05:42:41;;;;;;;13.33;10.70;;;;;;;;;;5097758;28;20444;-57
2021/09/09 05:45:20;;;;;;;12.80;10.23;;;;;;;;;;5089019;28;20472;-56
2021/09/09 05:47:53;;;;;;;15.70;11.63;;;;;;;;;;5095672;28;20460;-59
2021/09/09 05:50:26;;;;;;;16.90;11.30;;;;;;;;;;5095812;28;20563;-54
2021/09/09 05:52:54;;;;;;;14.33;9.60;;;;;;;;;;5075275;28;20534;-58
2021/09/09 05:55:28;;;;;;;28.57;19.17;;;;;;;;;;5089611;28;20416;-54
2021/09/09 05:58:03;;;;;;;15.60;10.90;;;;;;;;;;5093928;28;20460;-54
2021/09/09 06:00:36;;;;;;;18.00;11.83;;;;;;;;;;5104295;28;20427;-58
2021/09/09 06:03:28;;;;;;;15.77;10.57;;;;;;;;;;5086996;28;20451;-56
2021/09/09 06:06:01;;;;;;;12.47;10.10;;;;;;;;;;5119888;28;20435;-55
2021/09/09 06:08:38;;;;;;;16.53;9.77;;;;;;;;;;5119306;28;20454;-56
2021/09/09 06:11:18;;;;;;;15.10;10.47;;;;;;;;;;5111056;28;20453;-55
2021/09/09 06:13:46;;;;;;;13.17;9.80;;;;;;;;;;5118820;28;20454;-54
2021/09/09 06:16:15;;;;;;;12.97;9.70;;;;;;;;;;5119767;28;20458;-51
2021/09/09 06:18:43;;;;;;;16.37;9.87;;;;;;;;;;5103953;28;20443;-52
2021/09/09 06:21:10;;;;;;;15.40;9.73;;;;;;;;;;5098331;28;20452;-58
2021/09/09 06:23:37;;;;;;;13.67;9.10;;;;;;;;;;5098809;28;20506;-53
2021/09/09 06:29:04;;;;;;;15.33;9.47;;;;;;;;;;5106477;28;20471;-53
2021/09/09 06:31:54;;;;;;;13.13;9.90;;;;;;;;;;5119900;28;20465;-58
2021/09/09 06:34:31;;;;;;;13.83;8.67;;;;;;;;;;5100546;28;20472;-54
2021/09/09 06:40:05;;;;;;;12.17;8.83;;;;;;;;;;5098047;28;20477;-55
2021/09/09 06:42:49;;;;;;;12.70;8.93;;;;;;;;;;5098622;28;20446;-49
2021/09/09 06:45:36;;;;;;;12.70;9.43;;;;;;;;;;5099323;28;20474;-55
2021/09/09 06:50:56;;;;;;;13.30;8.40;;;;;;;;;;5072425;28;20501;-54
2021/09/09 06:53:23;;;;;;;12.77;9.27;;;;;;;;;;5098579;28;20479;-55
2021/09/09 06:55:52;;;;;;;15.80;8.80;;;;;;;;;;5099033;28;20440;-57
2021/09/09 06:58:20;;;;;;;11.30;8.47;;;;;;;;;;5098575;28;20433;-55
2021/09/09 07:00:56;;;;;;;11.07;8.33;;;;;;;;;;5098093;28;20468;-56
2021/09/09 07:09:39;;;;;;;13.00;8.07;;;;;;;;;;5096095;28;20462;-53
2021/09/09 07:12:07;;;;;;;9.47;7.60;;;;;;;;;;5097799;28;20455;-58
2021/09/09 07:14:43;;;;;;;10.63;8.03;;;;;;;;;;5098699;28;20484;-54
2021/09/09 07:17:10;;;;;;;12.97;8.67;;;;;;;;;;5098349;28;20443;-55
2021/09/09 07:19:38;;;;;;;11.50;9.60;;;;;;;;;;5097552;28;20508;-56
2021/09/09 07:25:19;;;;;;;10.60;8.17;;;;;;;;;;5096510;28;20462;-55
2021/09/09 07:27:48;;;;;;;15.73;8.43;;;;;;;;;;5098336;28;20439;-52
2021/09/09 07:33:27;;;;;;;12.50;8.17;;;;;;;;;;5096490;28;20487;-54
2021/09/09 07:35:55;;;;;;;13.87;9.60;;;;;;;;;;5098389;28;20452;-53
2021/09/09 07:38:23;;;;;;;10.17;7.67;;;;;;;;;;5097961;28;20492;-53
2021/09/09 07:40:52;;;;;;;9.97;8.03;;;;;;;;;;5097845;28;20491;-55
2021/09/09 07:43:19;;;;;;;10.27;8.13;;;;;;;;;;5097879;28;20425;-53
2021/09/09 07:48:51;;;;;;;12.10;9.23;;;;;;;;;;5097506;28;20430;-61
2021/09/09 07:51:22;;;;;;;14.10;8.70;;;;;;;;;;5096957;28;20519;-50
2021/09/09 07:53:50;;;;;;;10.30;8.53;;;;;;;;;;5097136;28;20452;-53
2021/09/09 07:56:19;;;;;;;12.47;8.33;;;;;;;;;;5097362;28;20436;-50
2021/09/09 07:58:48;;;;;;;10.97;9.27;;;;;;;;;;5097118;28;20447;-52
2021/09/09 08:01:18;;;;;;;12.87;8.30;;;;;;;;;;5097136;28;20677;-56
2021/09/09 08:03:45;;;;;;;10.47;8.20;;;;;;;;;;5097260;28;20452;-53
2021/09/09 08:06:12;;;;;;;10.60;8.43;;;;;;;;;;5097308;28;20448;-43
2021/09/09 08:08:40;;;;;;;12.20;8.40;;;;;;;;;;5098062;28;20486;-56
2021/09/09 08:11:07;;;;;;;11.57;7.57;;;;;;;;;;5097227;28;20468;-52
2021/09/09 08:13:59;;;;;;;14.90;7.63;;;;;;;;;;5095685;28;20444;-56
2021/09/09 08:19:14;;;;;;;11.67;9.03;;;;;;;;;;5074577;28;20548;-50
2021/09/09 08:21:42;;;;;;;13.93;8.77;;;;;;;;;;5076931;28;20464;-52
2021/09/09 08:24:43;;;;;;;18.60;7.77;;;;;;;;;;5075964;28;20453;-55
2021/09/09 08:27:10;;;;;;;11.90;7.83;;;;;;;;;;5090559;28;20582;-57
2021/09/09 08:29:58;;;;;;;10.77;8.87;;;;;;;;;;5096976;28;20484;-56
2021/09/09 08:32:28;;;;;;;17.40;11.83;;;;;;;;;;5095934;28;20463;-52
2021/09/09 08:34:56;;;;;;;12.33;8.50;;;;;;;;;;5096942;28;20515;-56
2021/09/09 08:37:25;;;;;;;9.87;8.17;;;;;;;;;;5097174;28;20490;-50
2021/09/09 08:39:54;;;;;;;12.90;8.00;;;;;;;;;;5096657;28;20456;-56
2021/09/09 08:42:23;;;;;;;12.03;8.47;;;;;;;;;;5096675;28;20494;-52
2021/09/09 08:44:51;;;;;;;12.60;7.90;;;;;;;;;;5096438;28;20456;-53
2021/09/09 08:50:24;;;;;;;11.03;8.60;;;;;;;;;;5094010;28;20564;-56
2021/09/09 08:52:52;;;;;;;13.87;8.20;;;;;;;;;;5096259;28;20488;-58
2021/09/09 08:55:43;;;;;;;11.87;8.93;;;;;;;;;;5097151;28;20456;-54
2021/09/09 08:58:51;;;;;;;11.70;8.67;;;;;;;;;;5091286;28;20492;-58
2021/09/09 09:01:27;;;;;;;9.63;7.97;;;;;;;;;;5095606;28;20443;-50
2021/09/09 09:04:06;;;;;;;8.40;7.07;;;;;;;;;;5096947;28;20468;-59
2021/09/09 09:06:42;;;;;;;10.27;7.83;;;;;;;;;;5096320;28;20445;-54
2021/09/09 09:09:24;;;;;;;14.53;7.83;;;;;;;;;;5076203;28;20512;-56
2021/09/09 09:11:53;;;;;;;9.87;7.97;;;;;;;;;;5075379;28;20461;-56
2021/09/09 09:14:21;;;;;;;10.53;7.70;;;;;;;;;;5076217;28;20425;-57
2021/09/09 09:17:08;;;;;;;16.33;8.30;;;;;;;;;;5075845;28;20445;-56
2021/09/09 09:19:37;;;;;;;10.40;7.00;;;;;;;;;;5075669;28;20449;-48
2021/09/09 09:22:07;;;;;;;19.33;8.90;;;;;;;;;;5081007;28;20445;-49
2021/09/09 09:24:44;;;;;;;9.57;6.80;;;;;;;;;;5096227;28;20440;-51
2021/09/09 09:27:12;;;;;;;10.13;8.13;;;;;;;;;;5096031;28;20452;-54
2021/09/09 09:29:40;;;;;;;9.03;7.63;;;;;;;;;;5096372;28;21103;-52
2021/09/09 09:35:30;;;;;;;14.90;9.27;;;;;;;;;;5095349;28;20411;-58
2021/09/09 09:38:02;;;;;;;13.73;11.13;;;;;;;;;;5095616;28;20460;-54
2021/09/09 09:41:04;;;;;;;22.47;10.87;;;;;;;;;;5102732;28;20448;-51
2021/09/09 09:43:31;;;;;;;12.70;9.13;;;;;;;;;;5104294;28;20431;-54
2021/09/09 09:46:08;;;;;;;9.93;7.90;;;;;;;;;;5095752;28;20428;-51
2021/09/09 09:49:11;;;;;;;10.20;7.47;;;;;;;;;;5095788;28;20506;-55
2021/09/09 09:51:43;;;;;;;11.90;8.03;;;;;;;;;;5093365;28;20480;-57
2021/09/09 09:54:15;;;;;;;13.20;7.67;;;;;;;;;;5095420;28;20447;-54
2021/09/09 09:57:02;;;;;;;17.03;8.30;;;;;;;;;;5096305;28;20450;-57
2021/09/09 09:59:29;;;;;;;9.10;6.90;;;;;;;;;;5093746;28;20471;-54
2021/09/09 10:01:56;;;;;;;13.00;8.47;;;;;;;;;;5095441;28;20451;-57
2021/09/09 10:04:30;;;;;;;9.23;7.40;;;;;;;;;;5095333;28;20525;-59
2021/09/09 10:06:59;;;;;;;12.53;8.17;;;;;;;;;;5074563;28;20480;-55
2021/09/09 10:09:29;;;;;;;16.70;8.50;;;;;;;;;;5094899;28;20459;-48
2021/09/09 10:11:57;;;;;;;11.33;8.10;;;;;;;;;;5095710;28;20449;-56
2021/09/09 10:14:27;;;;;;;12.87;6.93;;;;;;;;;;5095733;28;20452;-54
2021/09/09 10:17:06;;;;;;;11.83;7.30;;;;;;;;;;5095745;28;20801;-55
2021/09/09 10:19:36;;;;;;;10.00;7.40;;;;;;;;;;5095781;28;20485;-56
2021/09/09 10:22:14;;;;;;;12.10;7.90;;;;;;;;;;5095787;28;20432;-54
2021/09/09 10:27:57;;;;;;;10.37;6.77;;;;;;;;;;5092004;28;20428;-56
2021/09/09 10:30:43;;;;;;;11.30;8.60;;;;;;;;;;5094510;28;20491;-49
2021/09/09 10:33:28;;;;;;;11.13;7.40;;;;;;;;;;5094466;28;20440;-58
2021/09/09 10:38:59;;;;;;;8.93;7.10;;;;;;;;;;5085868;28;20434;-51
2021/09/09 10:41:28;;;;;;;9.90;7.87;;;;;;;;;;5102908;28;20479;-55
2021/09/09 10:44:00;;;;;;;12.40;10.17;;;;;;;;;;5094258;28;20436;-48
2021/09/09 10:46:42;;;;;;;13.50;8.73;;;;;;;;;;5095331;28;20448;-47
2021/09/09 10:49:14;;;;;;;22.60;7.30;;;;;;;;;;5097636;28;20460;-50
2021/09/09 10:51:56;;;;;;;11.40;7.50;;;;;;;;;;5099309;28;20518;-53
2021/09/09 10:54:56;;;;;;;11.17;7.80;;;;;;;;;;5098577;28;20462;-53
2021/09/09 10:57:25;;;;;;;9.93;7.73;;;;;;;;;;5089226;28;20476;-51
2021/09/09 10:59:54;;;;;;;12.60;8.97;;;;;;;;;;5099054;28;20448;-60
2021/09/09 11:02:21;;;;;;;12.03;7.77;;;;;;;;;;5098681;28;20440;-57
2021/09/09 11:04:51;;;;;;;10.53;9.43;;;;;;;;;;5098859;28;20501;-52
2021/09/09 11:07:38;;;;;;;15.77;8.50;;;;;;;;;;5098783;28;20439;-52
2021/09/09 11:10:17;;;;;;;12.83;8.30;;;;;;;;;;5080503;28;20472;-55
2021/09/09 11:13:17;;;;;;;13.37;8.17;;;;;;;;;;5116971;28;20507;-56
2021/09/09 11:15:46;;;;;;;11.60;8.30;;;;;;;;;;5098712;28;20459;-53
2021/09/09 11:18:26;;;;;;;12.07;7.80;;;;;;;;;;5099360;28;20563;-53
2021/09/09 11:21:03;;;;;;;14.93;8.97;;;;;;;;;;5099427;28;20482;-56
2021/09/09 11:26:41;;;;;;;15.13;10.07;;;;;;;;;;5098947;28;20426;-54
2021/09/09 11:29:15;;;;;;;13.63;10.07;;;;;;;;;;5098471;28;20457;-52
2021/09/09 11:31:52;;;;;;;15.80;10.80;;;;;;;;;;5098176;28;20500;-59
2021/09/09 11:34:25;;;;;;;12.53;8.93;;;;;;;;;;5078143;28;20413;-51
2021/09/09 11:37:01;;;;;;;13.13;9.80;;;;;;;;;;5078867;28;20432;-56
2021/09/09 11:39:33;;;;;;;16.23;10.13;;;;;;;;;;5078045;28;20471;-55
2021/09/09 11:42:04;;;;;;;13.97;10.20;;;;;;;;;;5096907;28;20444;-55
2021/09/09 11:44:42;;;;;;;12.40;9.57;;;;;;;;;;5098221;28;20452;-57
2021/09/09 11:47:13;;;;;;;13.43;9.70;;;;;;;;;;5075640;28;20493;-53
2021/09/09 11:49:40;;;;;;;11.70;10.10;;;;;;;;;;5077886;28;20524;-52
2021/09/09 11:52:26;;;;;;;13.97;8.77;;;;;;;;;;5063860;28;20478;-58
2021/09/09 11:54:54;;;;;;;12.47;8.73;;;;;;;;;;5083250;28;20487;-56
2021/09/09 12:06:21;;;;;;;13.90;8.90;;;;;;;;;;5096706;28;20436;-57
2021/09/09 12:08:50;;;;;;;14.33;11.13;;;;;;;;;;5098352;28;20526;-49
2021/09/09 12:11:18;;;;;;;13.57;10.43;;;;;;;;;;5097972;28;20510;-55
2021/09/09 12:13:46;;;;;;;14.80;11.53;;;;;;;;;;5097606;28;20444;-58
2021/09/09 12:16:18;;;;;;;16.77;14.37;;;;;;;;;;5098025;28;20431;-51
2021/09/09 12:19:06;;;;;;;10.40;9.30;;;;;;;;;;5097654;28;20432;-57
2021/09/09 12:21:52;;;;;;;14.60;11.13;;;;;;;;;;5097382;28;20503;-51
2021/09/09 12:24:42;;;;;;;9.77;8.77;;;;;;;;;;5097549;28;20456;-53
2021/09/09 12:27:31;;;;;;;12.97;9.90;;;;;;;;;;5095264;28;20494;-55
2021/09/09 12:30:07;;;;;;;10.40;8.90;;;;;;;;;;5096090;28;20520;-52
2021/09/09 12:32:34;;;;;;;10.70;9.23;;;;;;;;;;5095437;28;20519;-57
2021/09/09 12:35:14;;;;;;;11.73;8.23;;;;;;;;;;5090389;28;20870;-50
2021/09/09 12:38:04;;;;;;;13.50;9.20;;;;;;;;;;5093758;28;20447;-51
2021/09/09 12:41:09;;;;;;;10.70;8.70;;;;;;;;;;5088235;28;20443;-53
2021/09/09 12:43:42;;;;;;;14.30;8.90;;;;;;;;;;5095122;28;20524;-51
2021/09/09 12:46:28;;;;;;;10.50;8.70;;;;;;;;;;5057443;28;20473;-57
2021/09/09 12:49:02;;;;;;;13.90;7.20;;;;;;;;;;5095089;28;20473;-57
2021/09/09 12:51:30;;;;;;;14.53;8.73;;;;;;;;;;5114951;28;20491;-53
2021/09/09 12:54:02;;;;;;;11.33;8.20;;;;;;;;;;5111644;28;20462;-49
2021/09/09 12:56:30;;;;;;;8.80;7.63;;;;;;;;;;5093283;28;20444;-50
2021/09/09 12:59:00;;;;;;;10.10;7.40;;;;;;;;;;5093997;28;20466;-50
2021/09/09 13:01:27;;;;;;;11.03;7.60;;;;;;;;;;5073023;28;20563;-54
2021/09/09 13:03:54;;;;;;;11.23;7.80;;;;;;;;;;5074079;28;20449;-55
2021/09/09 13:09:54;;;;;;;9.90;7.77;;;;;;;;;;5092894;28;20539;-52
2021/09/09 13:12:24;;;;;;;12.90;6.93;;;;;;;;;;5094215;28;20496;-56
2021/09/09 13:14:51;;;;;;;10.57;7.40;;;;;;;;;;5093659;28;20747;-50
2021/09/09 13:17:19;;;;;;;14.53;7.77;;;;;;;;;;5100663;28;20867;-55
2021/09/09 13:20:12;;;;;;;10.43;8.13;;;;;;;;;;5098210;28;20460;-52
2021/09/09 13:22:47;;;;;;;10.80;7.37;;;;;;;;;;5092340;28;20589;-52
2021/09/09 13:28:23;;;;;;;14.20;8.90;;;;;;;;;;5091661;28;20489;-50
2021/09/09 13:30:52;;;;;;;13.00;8.70;;;;;;;;;;5092647;28;20488;-56
2021/09/09 13:33:29;;;;;;;11.40;8.70;;;;;;;;;;5074312;28;20452;-57
2021/09/09 13:35:57;;;;;;;14.07;8.60;;;;;;;;;;5090083;28;20515;-54
2021/09/09 13:41:31;;;;;;;12.70;7.03;;;;;;;;;;5091457;28;20462;-56
2021/09/09 13:44:00;;;;;;;9.23;6.50;;;;;;;;;;5109796;28;20451;-53
2021/09/09 13:46:33;;;;;;;12.03;6.20;;;;;;;;;;5093847;28;20543;-49
2021/09/09 13:49:05;;;;;;;12.93;6.67;;;;;;;;;;5072706;28;20526;-55
2021/09/09 13:51:35;;;;;;;11.57;7.57;;;;;;;;;;5081584;28;20500;-50
2021/09/09 13:54:22;;;;;;;10.53;7.07;;;;;;;;;;5095161;28;20467;-55
2021/09/09 13:56:52;;;;;;;9.93;6.80;;;;;;;;;;5073688;28;20444;-53
2021/09/09 13:59:21;;;;;;;11.60;6.93;;;;;;;;;;5091163;28;20484;-55
2021/09/09 14:01:49;;;;;;;10.20;7.40;;;;;;;;;;5093948;28;20468;-54
2021/09/09 14:04:35;;;;;;;9.97;7.20;;;;;;;;;;5094570;28;20450;-56
2021/09/09 14:07:04;;;;;;;10.37;7.57;;;;;;;;;;5093765;28;20470;-53
2021/09/09 14:09:32;;;;;;;12.33;7.30;;;;;;;;;;5093985;28;20511;-57
2021/09/09 14:12:02;;;;;;;11.03;6.40;;;;;;;;;;5074153;28;20477;-52
2021/09/09 14:15:00;;;;;;;9.30;6.20;;;;;;;;;;5075245;28;20452;-58
2021/09/09 14:17:32;;;;;;;9.87;6.90;;;;;;;;;;5072614;28;20449;-54
2021/09/09 14:20:02;;;;;;;12.47;7.70;;;;;;;;;;5089562;28;20499;-55
2021/09/09 14:22:30;;;;;;;10.83;6.97;;;;;;;;;;5093711;28;20442;-56
2021/09/09 14:25:08;;;;;;;15.27;7.50;;;;;;;;;;5116823;28;20431;-52
2021/09/09 14:27:35;;;;;;;11.40;5.90;;;;;;;;;;5117566;28;20461;-56
2021/09/09 14:30:03;;;;;;;17.63;7.00;;;;;;;;;;5110386;28;20456;-52
2021/09/09 14:35:36;;;;;;;11.03;6.50;;;;;;;;;;5095497;28;20454;-56
2021/09/09 14:38:04;;;;;;;7.83;6.00;;;;;;;;;;5097677;28;20444;-53
2021/09/09 14:40:31;;;;;;;10.77;6.10;;;;;;;;;;5097365;28;20471;-56
2021/09/09 14:43:01;;;;;;;8.33;5.73;;;;;;;;;;5098109;28;20452;-55
2021/09/09 14:45:53;;;;;;;13.23;8.90;;;;;;;;;;5097155;28;20459;-56
2021/09/09 14:51:51;;;;;;;8.70;5.83;;;;;;;;;;5075786;28;20468;-55
2021/09/09 14:54:19;;;;;;;12.57;7.67;;;;;;;;;;5075265;28;20449;-53
2021/09/09 14:57:09;;;;;;;14.17;6.07;;;;;;;;;;5077069;28;20428;-57
2021/09/09 14:59:38;;;;;;;7.37;5.23;;;;;;;;;;5075868;28;20509;-56
2021/09/09 15:02:05;;;;;;;8.43;5.80;;;;;;;;;;5092764;28;20565;-52
2021/09/09 15:04:42;;;;;;;13.40;5.73;;;;;;;;;;5095346;28;20466;-53
2021/09/09 15:07:11;;;;;;;7.47;5.20;;;;;;;;;;5094855;28;20520;-50
2021/09/09 15:09:41;;;;;;;8.77;5.40;;;;;;;;;;5094923;28;20448;-52
2021/09/09 15:12:11;;;;;;;9.50;5.73;;;;;;;;;;5094465;28;20496;-50
2021/09/09 15:14:39;;;;;;;8.23;5.17;;;;;;;;;;5094701;28;20452;-52
2021/09/09 15:17:08;;;;;;;10.37;5.30;;;;;;;;;;5092427;28;20492;-55
2021/09/09 15:19:37;;;;;;;8.10;5.57;;;;;;;;;;5094820;28;20456;-50
2021/09/09 15:22:05;;;;;;;7.03;5.00;;;;;;;;;;5093983;28;20463;-53
2021/09/09 15:25:09;;;;;;;6.47;5.10;;;;;;;;;;5094710;28;20507;-54
2021/09/09 15:27:38;;;;;;;8.53;4.83;;;;;;;;;;5108976;28;20443;-54
2021/09/09 15:30:08;;;;;;;17.07;7.17;;;;;;;;;;5116011;28;20654;-52
2021/09/09 15:32:41;;;;;;;13.50;4.80;;;;;;;;;;5101061;28;20486;-50
2021/09/09 15:35:12;;;;;;;10.70;4.87;;;;;;;;;;5102628;28;20511;-55
2021/09/09 15:37:39;;;;;;;26.77;11.53;;;;;;;;;;5097425;28;20458;-50
2021/09/09 15:40:14;;;;;;;11.60;6.03;;;;;;;;;;5103228;28;20427;-55
2021/09/09 15:42:56;;;;;;;16.10;8.20;;;;;;;;;;5117383;28;20449;-51
2021/09/09 15:45:37;;;;;;;13.53;6.47;;;;;;;;;;5117029;28;20518;-54
2021/09/09 15:48:10;;;;;;;11.77;7.30;;;;;;;;;;5116473;28;20652;-52
2021/09/09 15:50:39;;;;;;;13.73;7.17;;;;;;;;;;5103148;28;20460;-52
2021/09/09 15:53:13;;;;;;;9.90;6.30;;;;;;;;;;5095703;28;20783;-53
2021/09/09 15:55:49;;;;;;;29.73;24.20;;;;;;;;;;5098176;28;20507;-58
2021/09/09 15:58:23;;;;;;;14.37;6.50;;;;;;;;;;5094647;28;20471;-53
2021/09/09 16:00:51;;;;;;;21.63;13.17;;;;;;;;;;5097267;28;20443;-53
2021/09/09 16:03:32;;;;;;;12.80;5.20;;;;;;;;;;5097104;28;20440;-56
2021/09/09 16:06:08;;;;;;;10.77;5.10;;;;;;;;;;5088748;28;20574;-57
2021/09/09 16:08:42;;;;;;;19.47;13.93;;;;;;;;;;5097067;28;20531;-51
2021/09/09 16:14:51;;;;;;;6.17;3.40;;;;;;;;;;5080270;28;20456;-52
2021/09/09 16:17:23;;;;;;;5.07;3.17;;;;;;;;;;5095115;28;20716;-58
2021/09/09 16:19:52;;;;;;;12.97;9.27;;;;;;;;;;5097459;28;20474;-54
2021/09/09 16:22:44;;;;;;;19.53;14.87;;;;;;;;;;5097697;28;20426;-54
2021/09/09 16:25:12;;;;;;;15.07;7.50;;;;;;;;;;5094482;28;20487;-53
2021/09/09 16:27:40;;;;;;;27.80;16.60;;;;;;;;;;5096846;28;20440;-56
2021/09/09 16:30:12;;;;;;;6.03;3.50;;;;;;;;;;5097539;28;20463;-47
2021/09/09 16:32:45;;;;;;;12.63;7.50;;;;;;;;;;5097616;28;20508;-54
2021/09/09 16:37:57;;;;;;;7.30;3.90;;;;;;;;;;5284390;22;20504;-55
2021/09/09 16:43:32;;;;;;;7.93;4.07;;;;;;;;;;5054390;28;20493;-50
2021/09/09 16:46:07;;;;;;;11.73;8.07;;;;;;;;;;5056881;28;20454;-52
2021/09/09 16:48:56;;;;;;;27.80;19.90;;;;;;;;;;5055644;28;20453;-53
2021/09/09 16:51:24;;;;;;;13.10;7.50;;;;;;;;;;5050613;28;20474;-49